Marla, Australia
Current Conditions -  °F | °C
As of 9:00 PM on Saturday 25 Oct 2014 (Local Time) from YCBP Reporting Station
Clear Clear  
Wind Chill: 91°   Ceiling: Unl
Heat Index: 91°   Visibility: NA
Dew Point: 36°   Wind: 9mph
Humidity: 14%   Direction: 140°SE
Pressure: 29.94"   Gusts: NA
Location:  27.31°S, 133.62°E
Report Text: YCBP 251100Z AUTO 14008KT //// // NCD 33/02 Q1014
Loading
Personal Weather Stations






























Interactive Weather Map
Tropical Storm Tracking
New forecast layout! Learn more

10-Day Weather Forecast

Advertisements
Track Severe Weather on mobile